sensor_id;sensor_type;location;lat;lon;timestamp;temperature;humidity
12849;DHT22;6493;50.928;7.172;2024-01-30T00:02:42;5.10;57.20
12849;DHT22;6493;50.928;7.172;2024-01-30T00:07:48;5.10;57.10
12849;DHT22;6493;50.928;7.172;2024-01-30T00:12:51;5.00;56.80
12849;DHT22;6493;50.928;7.172;2024-01-30T00:17:57;5.00;57.30
12849;DHT22;6493;50.928;7.172;2024-01-30T00:23:01;5.00;57.60
12849;DHT22;6493;50.928;7.172;2024-01-30T00:28:05;5.00;57.60
12849;DHT22;6493;50.928;7.172;2024-01-30T00:33:10;4.90;57.80
12849;DHT22;6493;50.928;7.172;2024-01-30T00:38:13;4.90;57.60
12849;DHT22;6493;50.928;7.172;2024-01-30T00:43:18;4.90;57.90
12849;DHT22;6493;50.928;7.172;2024-01-30T00:48:25;4.80;57.60
12849;DHT22;6493;50.928;7.172;2024-01-30T00:53:28;4.80;57.70
12849;DHT22;6493;50.928;7.172;2024-01-30T00:58:32;4.80;58.10
12849;DHT22;6493;50.928;7.172;2024-01-30T01:03:37;4.80;57.80
12849;DHT22;6493;50.928;7.172;2024-01-30T01:08:43;4.70;58.50
12849;DHT22;6493;50.928;7.172;2024-01-30T01:13:48;4.70;58.00
12849;DHT22;6493;50.928;7.172;2024-01-30T01:18:53;4.70;57.80
12849;DHT22;6493;50.928;7.172;2024-01-30T01:23:56;4.60;58.10
12849;DHT22;6493;50.928;7.172;2024-01-30T01:29:00;4.60;58.30
12849;DHT22;6493;50.928;7.172;2024-01-30T01:34:05;4.60;58.40
12849;DHT22;6493;50.928;7.172;2024-01-30T01:39:09;4.60;58.00
12849;DHT22;6493;50.928;7.172;2024-01-30T01:44:13;4.60;58.00
12849;DHT22;6493;50.928;7.172;2024-01-30T01:49:18;4.60;57.90
12849;DHT22;6493;50.928;7.172;2024-01-30T01:54:24;4.60;58.00
12849;DHT22;6493;50.928;7.172;2024-01-30T01:59:28;4.60;58.30
12849;DHT22;6493;50.928;7.172;2024-01-30T02:04:34;4.60;58.00
12849;DHT22;6493;50.928;7.172;2024-01-30T02:09:37;4.60;58.30
12849;DHT22;6493;50.928;7.172;2024-01-30T02:14:44;4.70;58.20
12849;DHT22;6493;50.928;7.172;2024-01-30T02:19:49;4.60;58.40
12849;DHT22;6493;50.928;7.172;2024-01-30T02:24:55;4.60;58.40
12849;DHT22;6493;50.928;7.172;2024-01-30T02:29:59;4.60;58.10
12849;DHT22;6493;50.928;7.172;2024-01-30T02:35:03;4.60;58.00
12849;DHT22;6493;50.928;7.172;2024-01-30T02:40:08;4.60;58.00
12849;DHT22;6493;50.928;7.172;2024-01-30T02:45:13;4.60;57.80
12849;DHT22;6493;50.928;7.172;2024-01-30T02:50:17;4.60;58.00
12849;DHT22;6493;50.928;7.172;2024-01-30T02:55:22;4.60;57.70
12849;DHT22;6493;50.928;7.172;2024-01-30T03:00:26;4.60;57.50
12849;DHT22;6493;50.928;7.172;2024-01-30T03:05:29;4.70;57.50
12849;DHT22;6493;50.928;7.172;2024-01-30T03:10:34;4.70;57.60
12849;DHT22;6493;50.928;7.172;2024-01-30T03:15:38;4.70;57.60
12849;DHT22;6493;50.928;7.172;2024-01-30T03:20:42;4.60;57.90
12849;DHT22;6493;50.928;7.172;2024-01-30T03:25:47;4.60;58.00
12849;DHT22;6493;50.928;7.172;2024-01-30T03:30:51;4.60;58.00
12849;DHT22;6493;50.928;7.172;2024-01-30T03:35:55;4.60;58.40
12849;DHT22;6493;50.928;7.172;2024-01-30T03:41:00;4.60;58.40
12849;DHT22;6493;50.928;7.172;2024-01-30T03:46:04;4.50;58.30
12849;DHT22;6493;50.928;7.172;2024-01-30T03:51:08;4.50;58.80
12849;DHT22;6493;50.928;7.172;2024-01-30T03:56:19;4.50;58.30
12849;DHT22;6493;50.928;7.172;2024-01-30T04:01:23;4.50;59.00
12849;DHT22;6493;50.928;7.172;2024-01-30T04:06:27;4.50;58.30
12849;DHT22;6493;50.928;7.172;2024-01-30T04:11:32;4.50;58.30
12849;DHT22;6493;50.928;7.172;2024-01-30T04:16:36;4.40;58.30
12849;DHT22;6493;50.928;7.172;2024-01-30T04:21:39;4.40;58.30
12849;DHT22;6493;50.928;7.172;2024-01-30T04:26:45;4.40;58.60
12849;DHT22;6493;50.928;7.172;2024-01-30T04:31:48;4.40;58.50
12849;DHT22;6493;50.928;7.172;2024-01-30T04:36:52;4.40;58.80
12849;DHT22;6493;50.928;7.172;2024-01-30T04:41:57;4.40;58.80
12849;DHT22;6493;50.928;7.172;2024-01-30T04:47:01;4.40;58.60
12849;DHT22;6493;50.928;7.172;2024-01-30T04:52:05;4.40;59.00
12849;DHT22;6493;50.928;7.172;2024-01-30T04:57:10;4.40;58.70
12849;DHT22;6493;50.928;7.172;2024-01-30T05:02:15;4.40;59.00
12849;DHT22;6493;50.928;7.172;2024-01-30T05:07:18;4.40;58.80
12849;DHT22;6493;50.928;7.172;2024-01-30T05:12:23;4.30;59.10
12849;DHT22;6493;50.928;7.172;2024-01-30T05:17:27;4.30;59.30
12849;DHT22;6493;50.928;7.172;2024-01-30T05:22:31;4.30;59.30
12849;DHT22;6493;50.928;7.172;2024-01-30T05:27:36;4.20;58.80
12849;DHT22;6493;50.928;7.172;2024-01-30T05:32:39;4.20;58.90
12849;DHT22;6493;50.928;7.172;2024-01-30T05:37:43;4.20;59.10
12849;DHT22;6493;50.928;7.172;2024-01-30T05:42:49;4.20;59.60
12849;DHT22;6493;50.928;7.172;2024-01-30T05:47:52;4.10;58.80
12849;DHT22;6493;50.928;7.172;2024-01-30T05:52:56;4.10;59.10
12849;DHT22;6493;50.928;7.172;2024-01-30T05:58:01;4.10;58.90
12849;DHT22;6493;50.928;7.172;2024-01-30T06:03:06;4.00;59.10
12849;DHT22;6493;50.928;7.172;2024-01-30T06:08:09;4.00;59.20
12849;DHT22;6493;50.928;7.172;2024-01-30T06:13:14;4.00;59.60
12849;DHT22;6493;50.928;7.172;2024-01-30T06:18:18;4.00;60.00
12849;DHT22;6493;50.928;7.172;2024-01-30T06:23:23;4.00;60.10
12849;DHT22;6493;50.928;7.172;2024-01-30T06:28:27;4.00;59.70
12849;DHT22;6493;50.928;7.172;2024-01-30T06:33:31;4.00;60.80
12849;DHT22;6493;50.928;7.172;2024-01-30T06:38:35;4.00;59.90
12849;DHT22;6493;50.928;7.172;2024-01-30T06:43:40;4.00;60.00
12849;DHT22;6493;50.928;7.172;2024-01-30T06:48:44;4.00;60.00
12849;DHT22;6493;50.928;7.172;2024-01-30T06:53:48;4.00;60.10
12849;DHT22;6493;50.928;7.172;2024-01-30T06:58:53;4.00;60.20
12849;DHT22;6493;50.928;7.172;2024-01-30T07:03:57;4.10;60.00
12849;DHT22;6493;50.928;7.172;2024-01-30T07:09:01;4.10;60.50
12849;DHT22;6493;50.928;7.172;2024-01-30T07:14:08;4.10;60.70
12849;DHT22;6493;50.928;7.172;2024-01-30T07:19:12;4.10;60.90
12849;DHT22;6493;50.928;7.172;2024-01-30T07:24:16;4.20;61.30
12849;DHT22;6493;50.928;7.172;2024-01-30T07:29:21;4.20;61.10
12849;DHT22;6493;50.928;7.172;2024-01-30T07:34:25;4.20;61.30
12849;DHT22;6493;50.928;7.172;2024-01-30T07:39:30;4.20;61.90
12849;DHT22;6493;50.928;7.172;2024-01-30T07:44:35;4.20;61.50
12849;DHT22;6493;50.928;7.172;2024-01-30T07:49:39;4.20;61.80
12849;DHT22;6493;50.928;7.172;2024-01-30T07:54:42;4.30;62.10
12849;DHT22;6493;50.928;7.172;2024-01-30T08:06:10;4.30;62.40
12849;DHT22;6493;50.928;7.172;2024-01-30T08:11:13;4.40;61.50
12849;DHT22;6493;50.928;7.172;2024-01-30T08:16:17;4.40;61.60
12849;DHT22;6493;50.928;7.172;2024-01-30T08:21:22;4.40;61.60
12849;DHT22;6493;50.928;7.172;2024-01-30T08:26:26;4.40;61.40
12849;DHT22;6493;50.928;7.172;2024-01-30T08:31:29;4.50;61.80
12849;DHT22;6493;50.928;7.172;2024-01-30T08:36:34;4.50;61.90
12849;DHT22;6493;50.928;7.172;2024-01-30T08:41:38;4.50;62.80
12849;DHT22;6493;50.928;7.172;2024-01-30T08:46:41;4.50;62.20
12849;DHT22;6493;50.928;7.172;2024-01-30T08:51:47;4.60;62.60
12849;DHT22;6493;50.928;7.172;2024-01-30T08:56:51;4.70;62.40
12849;DHT22;6493;50.928;7.172;2024-01-30T09:01:55;4.70;62.10
12849;DHT22;6493;50.928;7.172;2024-01-30T09:07:14;4.70;62.30
12849;DHT22;6493;50.928;7.172;2024-01-30T09:12:18;4.80;62.20
12849;DHT22;6493;50.928;7.172;2024-01-30T09:17:22;4.90;63.00
12849;DHT22;6493;50.928;7.172;2024-01-30T09:22:27;5.00;62.30
12849;DHT22;6493;50.928;7.172;2024-01-30T09:27:31;5.10;62.70
12849;DHT22;6493;50.928;7.172;2024-01-30T09:32:34;5.30;63.00
12849;DHT22;6493;50.928;7.172;2024-01-30T09:37:39;5.50;62.50
12849;DHT22;6493;50.928;7.172;2024-01-30T09:42:45;5.60;62.70
12849;DHT22;6493;50.928;7.172;2024-01-30T09:47:50;5.60;62.30
12849;DHT22;6493;50.928;7.172;2024-01-30T09:52:55;5.80;62.80
12849;DHT22;6493;50.928;7.172;2024-01-30T09:58:00;6.10;63.10
12849;DHT22;6493;50.928;7.172;2024-01-30T10:03:04;6.30;62.50
12849;DHT22;6493;50.928;7.172;2024-01-30T10:08:09;6.40;62.10
12849;DHT22;6493;50.928;7.172;2024-01-30T10:13:13;6.50;62.10
12849;DHT22;6493;50.928;7.172;2024-01-30T10:18:17;6.60;61.80
12849;DHT22;6493;50.928;7.172;2024-01-30T10:23:22;6.60;61.50
12849;DHT22;6493;50.928;7.172;2024-01-30T10:28:27;6.70;61.60
12849;DHT22;6493;50.928;7.172;2024-01-30T10:33:32;6.80;61.80
12849;DHT22;6493;50.928;7.172;2024-01-30T10:38:38;6.80;61.60
12849;DHT22;6493;50.928;7.172;2024-01-30T10:43:53;6.90;61.60
12849;DHT22;6493;50.928;7.172;2024-01-30T10:48:59;7.00;61.70
12849;DHT22;6493;50.928;7.172;2024-01-30T10:54:05;7.10;61.60
12849;DHT22;6493;50.928;7.172;2024-01-30T10:59:10;7.10;61.30
12849;DHT22;6493;50.928;7.172;2024-01-30T11:04:16;7.20;61.20
12849;DHT22;6493;50.928;7.172;2024-01-30T11:09:21;7.20;61.10
12849;DHT22;6493;50.928;7.172;2024-01-30T11:14:25;7.20;61.00
12849;DHT22;6493;50.928;7.172;2024-01-30T11:19:31;7.30;61.30
12849;DHT22;6493;50.928;7.172;2024-01-30T11:24:47;7.30;61.30
12849;DHT22;6493;50.928;7.172;2024-01-30T11:29:50;7.30;61.40
12849;DHT22;6493;50.928;7.172;2024-01-30T11:34:55;7.40;61.00
12849;DHT22;6493;50.928;7.172;2024-01-30T11:40:00;7.40;61.10
12849;DHT22;6493;50.928;7.172;2024-01-30T11:45:07;7.50;61.40
12849;DHT22;6493;50.928;7.172;2024-01-30T11:50:10;7.50;61.00
12849;DHT22;6493;50.928;7.172;2024-01-30T11:55:17;7.60;61.10
12849;DHT22;6493;50.928;7.172;2024-01-30T12:00:21;7.70;61.30
12849;DHT22;6493;50.928;7.172;2024-01-30T12:05:25;7.80;61.30
12849;DHT22;6493;50.928;7.172;2024-01-30T12:10:30;7.90;61.40
12849;DHT22;6493;50.928;7.172;2024-01-30T12:15:35;7.90;61.40
12849;DHT22;6493;50.928;7.172;2024-01-30T12:20:39;8.00;61.40
12849;DHT22;6493;50.928;7.172;2024-01-30T12:25:44;8.10;61.50
12849;DHT22;6493;50.928;7.172;2024-01-30T12:30:47;8.20;62.20
12849;DHT22;6493;50.928;7.172;2024-01-30T12:35:51;8.30;61.30
12849;DHT22;6493;50.928;7.172;2024-01-30T12:41:07;8.30;61.00
12849;DHT22;6493;50.928;7.172;2024-01-30T12:46:11;8.40;61.10
12849;DHT22;6493;50.928;7.172;2024-01-30T12:51:14;8.40;60.90
12849;DHT22;6493;50.928;7.172;2024-01-30T12:56:19;8.50;60.90
12849;DHT22;6493;50.928;7.172;2024-01-30T13:01:23;8.50;60.80
12849;DHT22;6493;50.928;7.172;2024-01-30T13:06:27;8.60;60.70
12849;DHT22;6493;50.928;7.172;2024-01-30T13:11:34;8.60;60.70
12849;DHT22;6493;50.928;7.172;2024-01-30T13:16:38;8.60;61.20
12849;DHT22;6493;50.928;7.172;2024-01-30T13:21:43;8.70;60.70
12849;DHT22;6493;50.928;7.172;2024-01-30T13:26:48;8.70;60.70
12849;DHT22;6493;50.928;7.172;2024-01-30T13:31:52;8.70;60.60
12849;DHT22;6493;50.928;7.172;2024-01-30T13:36:55;8.80;60.60
12849;DHT22;6493;50.928;7.172;2024-01-30T13:42:01;8.80;60.40
12849;DHT22;6493;50.928;7.172;2024-01-30T13:47:05;8.90;60.40
12849;DHT22;6493;50.928;7.172;2024-01-30T13:52:09;8.90;60.30
12849;DHT22;6493;50.928;7.172;2024-01-30T13:57:14;8.90;60.30
12849;DHT22;6493;50.928;7.172;2024-01-30T14:02:17;8.90;60.20
12849;DHT22;6493;50.928;7.172;2024-01-30T14:07:21;8.90;60.20
12849;DHT22;6493;50.928;7.172;2024-01-30T14:12:26;8.90;60.10
12849;DHT22;6493;50.928;7.172;2024-01-30T14:17:30;8.90;60.20
12849;DHT22;6493;50.928;7.172;2024-01-30T14:22:34;8.90;60.10
12849;DHT22;6493;50.928;7.172;2024-01-30T14:27:39;8.90;60.10
12849;DHT22;6493;50.928;7.172;2024-01-30T14:32:43;8.90;60.10
12849;DHT22;6493;50.928;7.172;2024-01-30T14:37:47;8.90;60.00
12849;DHT22;6493;50.928;7.172;2024-01-30T14:42:52;8.90;60.00
12849;DHT22;6493;50.928;7.172;2024-01-30T14:47:57;8.80;59.90
12849;DHT22;6493;50.928;7.172;2024-01-30T14:53:01;8.80;59.80
12849;DHT22;6493;50.928;7.172;2024-01-30T14:58:06;8.80;59.80
12849;DHT22;6493;50.928;7.172;2024-01-30T15:03:10;8.70;59.80
12849;DHT22;6493;50.928;7.172;2024-01-30T15:08:13;8.70;59.70
12849;DHT22;6493;50.928;7.172;2024-01-30T15:13:19;8.70;59.80
12849;DHT22;6493;50.928;7.172;2024-01-30T15:18:23;8.70;59.80
12849;DHT22;6493;50.928;7.172;2024-01-30T15:23:27;8.60;59.80
12849;DHT22;6493;50.928;7.172;2024-01-30T15:28:36;8.60;59.70
12849;DHT22;6493;50.928;7.172;2024-01-30T15:33:40;8.50;59.70
12849;DHT22;6493;50.928;7.172;2024-01-30T15:38:44;8.50;59.70
12849;DHT22;6493;50.928;7.172;2024-01-30T15:43:49;8.50;59.70
12849;DHT22;6493;50.928;7.172;2024-01-30T15:48:53;8.40;59.70
12849;DHT22;6493;50.928;7.172;2024-01-30T15:53:57;8.40;59.80
12849;DHT22;6493;50.928;7.172;2024-01-30T15:59:02;8.30;59.80
12849;DHT22;6493;50.928;7.172;2024-01-30T16:04:06;8.30;59.80
12849;DHT22;6493;50.928;7.172;2024-01-30T16:09:10;8.30;59.80
12849;DHT22;6493;50.928;7.172;2024-01-30T16:14:15;8.30;59.80
12849;DHT22;6493;50.928;7.172;2024-01-30T16:19:20;8.30;59.80
12849;DHT22;6493;50.928;7.172;2024-01-30T16:24:23;8.20;59.80
12849;DHT22;6493;50.928;7.172;2024-01-30T16:29:29;8.20;59.70
12849;DHT22;6493;50.928;7.172;2024-01-30T16:34:35;8.20;59.90
12849;DHT22;6493;50.928;7.172;2024-01-30T16:39:39;8.10;59.80
12849;DHT22;6493;50.928;7.172;2024-01-30T16:44:44;8.20;60.00
12849;DHT22;6493;50.928;7.172;2024-01-30T16:49:47;8.10;60.00
12849;DHT22;6493;50.928;7.172;2024-01-30T16:54:52;8.10;60.00
12849;DHT22;6493;50.928;7.172;2024-01-30T16:59:57;8.10;60.00
12849;DHT22;6493;50.928;7.172;2024-01-30T17:05:01;8.00;60.00
12849;DHT22;6493;50.928;7.172;2024-01-30T17:10:21;8.00;59.90
12849;DHT22;6493;50.928;7.172;2024-01-30T17:15:26;7.90;59.70
12849;DHT22;6493;50.928;7.172;2024-01-30T17:20:30;7.90;59.70
12849;DHT22;6493;50.928;7.172;2024-01-30T17:25:34;7.80;59.50
12849;DHT22;6493;50.928;7.172;2024-01-30T17:30:39;7.70;59.30
12849;DHT22;6493;50.928;7.172;2024-01-30T17:35:43;7.70;59.30
12849;DHT22;6493;50.928;7.172;2024-01-30T17:40:47;7.60;59.20
12849;DHT22;6493;50.928;7.172;2024-01-30T17:46:08;7.60;59.10
12849;DHT22;6493;50.928;7.172;2024-01-30T17:51:12;7.50;58.90
12849;DHT22;6493;50.928;7.172;2024-01-30T17:56:15;7.50;58.70
12849;DHT22;6493;50.928;7.172;2024-01-30T18:01:20;7.40;58.70
12849;DHT22;6493;50.928;7.172;2024-01-30T18:06:24;7.30;58.40
12849;DHT22;6493;50.928;7.172;2024-01-30T18:11:28;7.30;58.50
12849;DHT22;6493;50.928;7.172;2024-01-30T18:16:33;7.20;58.80
12849;DHT22;6493;50.928;7.172;2024-01-30T18:21:36;7.20;58.30
12849;DHT22;6493;50.928;7.172;2024-01-30T18:26:41;7.20;58.30
12849;DHT22;6493;50.928;7.172;2024-01-30T18:31:46;7.10;58.20
12849;DHT22;6493;50.928;7.172;2024-01-30T18:36:50;7.10;58.30
12849;DHT22;6493;50.928;7.172;2024-01-30T18:41:53;7.10;58.30
12849;DHT22;6493;50.928;7.172;2024-01-30T18:46:58;7.00;58.30
12849;DHT22;6493;50.928;7.172;2024-01-30T18:52:02;7.00;58.10
12849;DHT22;6493;50.928;7.172;2024-01-30T18:57:07;7.00;58.20
12849;DHT22;6493;50.928;7.172;2024-01-30T19:02:12;7.00;58.10
12849;DHT22;6493;50.928;7.172;2024-01-30T19:07:16;7.00;58.10
12849;DHT22;6493;50.928;7.172;2024-01-30T19:12:20;6.90;57.90
12849;DHT22;6493;50.928;7.172;2024-01-30T19:17:25;7.00;58.00
12849;DHT22;6493;50.928;7.172;2024-01-30T19:22:28;6.90;57.90
12849;DHT22;6493;50.928;7.172;2024-01-30T19:27:32;6.90;57.90
12849;DHT22;6493;50.928;7.172;2024-01-30T19:32:37;6.90;57.90
12849;DHT22;6493;50.928;7.172;2024-01-30T19:37:41;6.80;57.90
12849;DHT22;6493;50.928;7.172;2024-01-30T19:42:45;6.80;57.90
12849;DHT22;6493;50.928;7.172;2024-01-30T19:47:51;6.80;57.90
12849;DHT22;6493;50.928;7.172;2024-01-30T19:52:55;6.80;57.80
12849;DHT22;6493;50.928;7.172;2024-01-30T19:57:59;6.80;57.80
12849;DHT22;6493;50.928;7.172;2024-01-30T20:03:05;6.70;57.70
12849;DHT22;6493;50.928;7.172;2024-01-30T20:08:08;6.70;57.80
12849;DHT22;6493;50.928;7.172;2024-01-30T20:13:12;6.70;57.80
12849;DHT22;6493;50.928;7.172;2024-01-30T20:18:17;6.70;57.80
12849;DHT22;6493;50.928;7.172;2024-01-30T20:23:20;6.70;57.90
12849;DHT22;6493;50.928;7.172;2024-01-30T20:28:25;6.60;57.80
12849;DHT22;6493;50.928;7.172;2024-01-30T20:33:30;6.60;57.80
12849;DHT22;6493;50.928;7.172;2024-01-30T20:38:36;6.50;57.80
12849;DHT22;6493;50.928;7.172;2024-01-30T20:43:42;6.50;57.90
12849;DHT22;6493;50.928;7.172;2024-01-30T20:48:48;6.50;57.90
12849;DHT22;6493;50.928;7.172;2024-01-30T20:53:51;6.40;57.90
12849;DHT22;6493;50.928;7.172;2024-01-30T20:58:55;6.40;57.90
12849;DHT22;6493;50.928;7.172;2024-01-30T21:04:00;6.30;57.90
12849;DHT22;6493;50.928;7.172;2024-01-30T21:09:04;6.30;57.90
12849;DHT22;6493;50.928;7.172;2024-01-30T21:14:08;6.30;58.00
12849;DHT22;6493;50.928;7.172;2024-01-30T21:19:17;6.30;58.00
12849;DHT22;6493;50.928;7.172;2024-01-30T21:24:21;6.30;58.00
12849;DHT22;6493;50.928;7.172;2024-01-30T21:29:24;6.30;58.00
12849;DHT22;6493;50.928;7.172;2024-01-30T21:34:29;6.20;57.90
12849;DHT22;6493;50.928;7.172;2024-01-30T21:39:33;6.20;58.00
12849;DHT22;6493;50.928;7.172;2024-01-30T21:44:38;6.20;58.00
12849;DHT22;6493;50.928;7.172;2024-01-30T21:49:43;6.20;58.00
12849;DHT22;6493;50.928;7.172;2024-01-30T21:54:47;6.20;58.00
12849;DHT22;6493;50.928;7.172;2024-01-30T21:59:50;6.20;58.00
12849;DHT22;6493;50.928;7.172;2024-01-30T22:04:55;6.10;58.00
12849;DHT22;6493;50.928;7.172;2024-01-30T22:09:59;6.10;58.00
12849;DHT22;6493;50.928;7.172;2024-01-30T22:15:04;6.10;58.00
12849;DHT22;6493;50.928;7.172;2024-01-30T22:20:10;6.10;58.00
12849;DHT22;6493;50.928;7.172;2024-01-30T22:25:14;6.10;58.00
12849;DHT22;6493;50.928;7.172;2024-01-30T22:30:17;6.00;58.00
12849;DHT22;6493;50.928;7.172;2024-01-30T22:35:23;6.00;58.00
12849;DHT22;6493;50.928;7.172;2024-01-30T22:40:26;6.00;58.00
12849;DHT22;6493;50.928;7.172;2024-01-30T22:45:30;5.90;57.90
12849;DHT22;6493;50.928;7.172;2024-01-30T22:50:35;5.90;58.00
12849;DHT22;6493;50.928;7.172;2024-01-30T22:55:39;5.90;58.00
12849;DHT22;6493;50.928;7.172;2024-01-30T23:00:42;5.80;57.90
12849;DHT22;6493;50.928;7.172;2024-01-30T23:05:47;5.80;58.00
12849;DHT22;6493;50.928;7.172;2024-01-30T23:10:51;5.70;57.90
12849;DHT22;6493;50.928;7.172;2024-01-30T23:15:55;5.70;58.00
12849;DHT22;6493;50.928;7.172;2024-01-30T23:21:00;5.70;58.00
12849;DHT22;6493;50.928;7.172;2024-01-30T23:26:03;5.70;58.10
12849;DHT22;6493;50.928;7.172;2024-01-30T23:31:07;5.70;58.10
12849;DHT22;6493;50.928;7.172;2024-01-30T23:36:12;5.60;58.10
12849;DHT22;6493;50.928;7.172;2024-01-30T23:41:16;5.60;58.20
12849;DHT22;6493;50.928;7.172;2024-01-30T23:46:19;5.60;58.20
12849;DHT22;6493;50.928;7.172;2024-01-30T23:51:25;5.60;58.20
12849;DHT22;6493;50.928;7.172;2024-01-30T23:56:28;5.50;58.10
